sensor_id;sensor_type;location;lat;lon;timestamp;P1;durP1;ratioP1;P2;durP2;ratioP2
50291;SDS011;36190;54.980;73.388;2022-08-05T00:02:25;13.85;;;5.90;;
50291;SDS011;36190;54.980;73.388;2022-08-05T00:04:53;11.75;;;4.68;;
50291;SDS011;36190;54.980;73.388;2022-08-05T00:07:21;10.10;;;4.35;;
50291;SDS011;36190;54.980;73.388;2022-08-05T00:09:49;12.70;;;4.50;;
50291;SDS011;36190;54.980;73.388;2022-08-05T00:12:16;12.00;;;4.20;;
50291;SDS011;36190;54.980;73.388;2022-08-05T00:14:43;12.65;;;4.00;;
50291;SDS011;36190;54.980;73.388;2022-08-05T00:17:11;11.68;;;4.05;;
50291;SDS011;36190;54.980;73.388;2022-08-05T00:19:38;9.57;;;3.70;;
50291;SDS011;36190;54.980;73.388;2022-08-05T00:22:06;12.75;;;4.93;;
50291;SDS011;36190;54.980;73.388;2022-08-05T00:24:35;12.00;;;3.92;;
50291;SDS011;36190;54.980;73.388;2022-08-05T00:27:03;11.98;;;4.57;;
50291;SDS011;36190;54.980;73.388;2022-08-05T00:29:31;12.48;;;4.88;;
50291;SDS011;36190;54.980;73.388;2022-08-05T00:31:58;16.45;;;5.45;;
50291;SDS011;36190;54.980;73.388;2022-08-05T00:34:26;12.40;;;4.82;;
50291;SDS011;36190;54.980;73.388;2022-08-05T00:36:53;11.68;;;4.80;;
50291;SDS011;36190;54.980;73.388;2022-08-05T00:39:21;12.77;;;5.15;;
50291;SDS011;36190;54.980;73.388;2022-08-05T00:41:49;16.02;;;5.60;;
50291;SDS011;36190;54.980;73.388;2022-08-05T00:44:17;16.95;;;5.50;;
50291;SDS011;36190;54.980;73.388;2022-08-05T00:46:44;16.00;;;5.53;;
50291;SDS011;36190;54.980;73.388;2022-08-05T00:49:12;14.63;;;4.95;;
50291;SDS011;36190;54.980;73.388;2022-08-05T00:51:43;16.20;;;5.38;;
50291;SDS011;36190;54.980;73.388;2022-08-05T00:54:10;12.57;;;5.20;;
50291;SDS011;36190;54.980;73.388;2022-08-05T00:56:38;16.40;;;4.97;;
50291;SDS011;36190;54.980;73.388;2022-08-05T00:59:07;15.80;;;4.93;;
50291;SDS011;36190;54.980;73.388;2022-08-05T01:01:34;12.90;;;5.10;;
50291;SDS011;36190;54.980;73.388;2022-08-05T01:04:02;16.48;;;4.82;;
50291;SDS011;36190;54.980;73.388;2022-08-05T01:06:29;12.65;;;4.90;;
50291;SDS011;36190;54.980;73.388;2022-08-05T01:08:57;21.15;;;6.55;;
50291;SDS011;36190;54.980;73.388;2022-08-05T01:11:26;19.20;;;5.65;;
50291;SDS011;36190;54.980;73.388;2022-08-05T01:14:03;12.70;;;5.28;;
50291;SDS011;36190;54.980;73.388;2022-08-05T01:16:36;13.45;;;5.20;;
50291;SDS011;36190;54.980;73.388;2022-08-05T01:19:11;14.40;;;5.47;;
50291;SDS011;36190;54.980;73.388;2022-08-05T01:21:55;13.57;;;6.30;;
50291;SDS011;36190;54.980;73.388;2022-08-05T01:24:51;17.42;;;6.53;;
50291;SDS011;36190;54.980;73.388;2022-08-05T01:30:14;15.27;;;5.70;;
50291;SDS011;36190;54.980;73.388;2022-08-05T01:32:43;11.65;;;4.88;;
50291;SDS011;36190;54.980;73.388;2022-08-05T01:35:15;14.98;;;5.25;;
50291;SDS011;36190;54.980;73.388;2022-08-05T01:37:45;13.02;;;4.97;;
50291;SDS011;36190;54.980;73.388;2022-08-05T01:40:15;13.55;;;4.80;;
50291;SDS011;36190;54.980;73.388;2022-08-05T01:42:46;12.20;;;4.65;;
50291;SDS011;36190;54.980;73.388;2022-08-05T01:45:16;16.50;;;4.45;;
50291;SDS011;36190;54.980;73.388;2022-08-05T01:47:46;12.52;;;3.97;;
50291;SDS011;36190;54.980;73.388;2022-08-05T01:50:16;15.88;;;4.20;;
50291;SDS011;36190;54.980;73.388;2022-08-05T01:52:46;18.48;;;4.10;;
50291;SDS011;36190;54.980;73.388;2022-08-05T01:55:16;14.02;;;4.18;;
50291;SDS011;36190;54.980;73.388;2022-08-05T01:57:48;12.90;;;4.07;;
50291;SDS011;36190;54.980;73.388;2022-08-05T02:00:18;15.60;;;4.22;;
50291;SDS011;36190;54.980;73.388;2022-08-05T02:02:47;18.20;;;4.32;;
50291;SDS011;36190;54.980;73.388;2022-08-05T02:05:19;20.33;;;5.53;;
50291;SDS011;36190;54.980;73.388;2022-08-05T02:07:49;13.13;;;4.53;;
50291;SDS011;36190;54.980;73.388;2022-08-05T02:10:18;21.63;;;4.22;;
50291;SDS011;36190;54.980;73.388;2022-08-05T02:12:49;17.15;;;4.13;;
50291;SDS011;36190;54.980;73.388;2022-08-05T02:15:21;10.85;;;3.80;;
50291;SDS011;36190;54.980;73.388;2022-08-05T02:17:52;19.73;;;5.05;;
50291;SDS011;36190;54.980;73.388;2022-08-05T02:20:25;16.33;;;4.43;;
50291;SDS011;36190;54.980;73.388;2022-08-05T02:22:57;12.98;;;4.20;;
50291;SDS011;36190;54.980;73.388;2022-08-05T02:25:27;13.32;;;4.53;;
50291;SDS011;36190;54.980;73.388;2022-08-05T02:27:58;12.25;;;4.00;;
50291;SDS011;36190;54.980;73.388;2022-08-05T02:30:30;13.07;;;3.78;;
50291;SDS011;36190;54.980;73.388;2022-08-05T02:33:03;15.40;;;4.05;;
50291;SDS011;36190;54.980;73.388;2022-08-05T02:35:31;18.45;;;4.32;;
50291;SDS011;36190;54.980;73.388;2022-08-05T02:38:00;12.55;;;3.78;;
50291;SDS011;36190;54.980;73.388;2022-08-05T02:40:28;15.35;;;3.45;;
50291;SDS011;36190;54.980;73.388;2022-08-05T02:42:59;14.90;;;3.65;;
50291;SDS011;36190;54.980;73.388;2022-08-05T02:45:27;15.35;;;3.70;;
50291;SDS011;36190;54.980;73.388;2022-08-05T02:47:57;12.93;;;3.78;;
50291;SDS011;36190;54.980;73.388;2022-08-05T02:50:27;15.43;;;4.78;;
50291;SDS011;36190;54.980;73.388;2022-08-05T02:52:55;11.90;;;3.70;;
50291;SDS011;36190;54.980;73.388;2022-08-05T02:55:24;9.27;;;3.40;;
50291;SDS011;36190;54.980;73.388;2022-08-05T02:57:52;7.82;;;3.10;;
50291;SDS011;36190;54.980;73.388;2022-08-05T03:00:22;8.57;;;2.78;;
50291;SDS011;36190;54.980;73.388;2022-08-05T03:02:50;9.30;;;3.08;;
50291;SDS011;36190;54.980;73.388;2022-08-05T03:05:19;11.00;;;3.40;;
50291;SDS011;36190;54.980;73.388;2022-08-05T03:07:47;11.63;;;3.17;;
50291;SDS011;36190;54.980;73.388;2022-08-05T03:10:15;17.85;;;3.92;;
50291;SDS011;36190;54.980;73.388;2022-08-05T03:12:42;15.10;;;3.40;;
50291;SDS011;36190;54.980;73.388;2022-08-05T03:15:10;16.38;;;3.80;;
50291;SDS011;36190;54.980;73.388;2022-08-05T03:17:39;8.73;;;3.00;;
50291;SDS011;36190;54.980;73.388;2022-08-05T03:20:07;9.60;;;2.97;;
50291;SDS011;36190;54.980;73.388;2022-08-05T03:22:35;14.02;;;3.42;;
50291;SDS011;36190;54.980;73.388;2022-08-05T03:25:03;11.65;;;3.03;;
50291;SDS011;36190;54.980;73.388;2022-08-05T03:27:31;10.60;;;3.63;;
50291;SDS011;36190;54.980;73.388;2022-08-05T03:29:58;10.93;;;3.30;;
50291;SDS011;36190;54.980;73.388;2022-08-05T03:32:26;6.28;;;2.80;;
50291;SDS011;36190;54.980;73.388;2022-08-05T03:34:55;13.68;;;3.95;;
50291;SDS011;36190;54.980;73.388;2022-08-05T03:37:22;7.55;;;2.80;;
50291;SDS011;36190;54.980;73.388;2022-08-05T03:39:51;8.63;;;3.00;;
50291;SDS011;36190;54.980;73.388;2022-08-05T03:42:23;11.73;;;3.10;;
50291;SDS011;36190;54.980;73.388;2022-08-05T03:44:50;11.10;;;3.88;;
50291;SDS011;36190;54.980;73.388;2022-08-05T03:47:18;11.90;;;3.30;;
50291;SDS011;36190;54.980;73.388;2022-08-05T03:49:45;12.93;;;3.88;;
50291;SDS011;36190;54.980;73.388;2022-08-05T03:52:17;10.93;;;3.13;;
50291;SDS011;36190;54.980;73.388;2022-08-05T03:54:49;11.65;;;3.08;;
50291;SDS011;36190;54.980;73.388;2022-08-05T03:57:22;6.03;;;2.70;;
50291;SDS011;36190;54.980;73.388;2022-08-05T03:59:55;9.88;;;3.40;;
50291;SDS011;36190;54.980;73.388;2022-08-05T04:02:27;6.70;;;2.75;;
50291;SDS011;36190;54.980;73.388;2022-08-05T04:04:58;8.55;;;3.00;;
50291;SDS011;36190;54.980;73.388;2022-08-05T04:07:28;8.00;;;2.55;;
50291;SDS011;36190;54.980;73.388;2022-08-05T04:09:56;9.18;;;2.80;;
50291;SDS011;36190;54.980;73.388;2022-08-05T04:12:25;9.05;;;2.90;;
50291;SDS011;36190;54.980;73.388;2022-08-05T04:14:52;7.45;;;2.78;;
50291;SDS011;36190;54.980;73.388;2022-08-05T04:17:20;9.15;;;3.20;;
50291;SDS011;36190;54.980;73.388;2022-08-05T04:19:47;11.10;;;3.10;;
50291;SDS011;36190;54.980;73.388;2022-08-05T04:22:15;8.43;;;2.97;;
50291;SDS011;36190;54.980;73.388;2022-08-05T04:24:44;9.70;;;3.45;;
50291;SDS011;36190;54.980;73.388;2022-08-05T04:27:12;11.35;;;3.70;;
50291;SDS011;36190;54.980;73.388;2022-08-05T04:29:40;9.15;;;3.35;;
50291;SDS011;36190;54.980;73.388;2022-08-05T04:32:09;12.20;;;3.15;;
50291;SDS011;36190;54.980;73.388;2022-08-05T04:34:36;7.97;;;2.90;;
50291;SDS011;36190;54.980;73.388;2022-08-05T04:37:04;7.10;;;3.08;;
50291;SDS011;36190;54.980;73.388;2022-08-05T04:39:31;5.88;;;2.80;;
50291;SDS011;36190;54.980;73.388;2022-08-05T04:42:00;5.50;;;2.60;;
50291;SDS011;36190;54.980;73.388;2022-08-05T04:44:27;7.15;;;3.20;;
50291;SDS011;36190;54.980;73.388;2022-08-05T04:46:55;7.13;;;2.42;;
50291;SDS011;36190;54.980;73.388;2022-08-05T04:49:23;8.85;;;3.10;;
50291;SDS011;36190;54.980;73.388;2022-08-05T04:51:50;5.93;;;2.83;;
50291;SDS011;36190;54.980;73.388;2022-08-05T04:54:17;5.35;;;2.60;;
50291;SDS011;36190;54.980;73.388;2022-08-05T04:56:46;4.07;;;2.40;;
50291;SDS011;36190;54.980;73.388;2022-08-05T04:59:14;5.82;;;2.72;;
50291;SDS011;36190;54.980;73.388;2022-08-05T05:01:42;8.18;;;4.00;;
50291;SDS011;36190;54.980;73.388;2022-08-05T05:04:09;12.60;;;3.25;;
50291;SDS011;36190;54.980;73.388;2022-08-05T05:06:36;11.18;;;3.10;;
50291;SDS011;36190;54.980;73.388;2022-08-05T05:09:04;9.90;;;2.70;;
50291;SDS011;36190;54.980;73.388;2022-08-05T05:11:31;6.43;;;2.50;;
50291;SDS011;36190;54.980;73.388;2022-08-05T05:13:59;5.15;;;2.60;;
50291;SDS011;36190;54.980;73.388;2022-08-05T05:16:29;6.60;;;2.70;;
50291;SDS011;36190;54.980;73.388;2022-08-05T05:18:56;6.22;;;2.55;;
50291;SDS011;36190;54.980;73.388;2022-08-05T05:21:23;6.60;;;2.45;;
50291;SDS011;36190;54.980;73.388;2022-08-05T05:23:51;4.68;;;2.33;;
50291;SDS011;36190;54.980;73.388;2022-08-05T05:26:18;7.47;;;2.80;;
50291;SDS011;36190;54.980;73.388;2022-08-05T05:28:46;10.48;;;2.78;;
50291;SDS011;36190;54.980;73.388;2022-08-05T05:31:13;5.20;;;2.45;;
50291;SDS011;36190;54.980;73.388;2022-08-05T05:33:42;7.93;;;2.50;;
50291;SDS011;36190;54.980;73.388;2022-08-05T05:36:09;8.35;;;2.70;;
50291;SDS011;36190;54.980;73.388;2022-08-05T05:38:36;4.45;;;2.40;;
50291;SDS011;36190;54.980;73.388;2022-08-05T05:41:04;8.18;;;2.83;;
50291;SDS011;36190;54.980;73.388;2022-08-05T05:43:31;6.55;;;2.70;;
50291;SDS011;36190;54.980;73.388;2022-08-05T05:45:59;4.20;;;2.47;;
50291;SDS011;36190;54.980;73.388;2022-08-05T05:48:26;8.15;;;2.75;;
50291;SDS011;36190;54.980;73.388;2022-08-05T05:50:55;6.82;;;2.80;;
50291;SDS011;36190;54.980;73.388;2022-08-05T05:53:22;7.82;;;2.67;;
50291;SDS011;36190;54.980;73.388;2022-08-05T05:55:49;6.47;;;2.50;;
50291;SDS011;36190;54.980;73.388;2022-08-05T05:58:17;8.10;;;2.70;;
50291;SDS011;36190;54.980;73.388;2022-08-05T06:00:44;4.18;;;2.45;;
50291;SDS011;36190;54.980;73.388;2022-08-05T06:03:12;6.57;;;2.40;;
50291;SDS011;36190;54.980;73.388;2022-08-05T06:05:39;5.88;;;2.92;;
50291;SDS011;36190;54.980;73.388;2022-08-05T06:08:08;5.13;;;2.60;;
50291;SDS011;36190;54.980;73.388;2022-08-05T06:10:35;7.00;;;2.92;;
50291;SDS011;36190;54.980;73.388;2022-08-05T06:13:03;5.22;;;2.70;;
50291;SDS011;36190;54.980;73.388;2022-08-05T06:15:30;3.55;;;2.35;;
50291;SDS011;36190;54.980;73.388;2022-08-05T06:17:58;8.57;;;2.70;;
50291;SDS011;36190;54.980;73.388;2022-08-05T06:20:25;5.35;;;2.33;;
50291;SDS011;36190;54.980;73.388;2022-08-05T06:22:53;7.30;;;2.60;;
50291;SDS011;36190;54.980;73.388;2022-08-05T06:25:22;4.97;;;2.50;;
50291;SDS011;36190;54.980;73.388;2022-08-05T06:27:49;5.82;;;2.70;;
50291;SDS011;36190;54.980;73.388;2022-08-05T06:30:17;5.68;;;2.75;;
50291;SDS011;36190;54.980;73.388;2022-08-05T06:32:45;4.38;;;2.35;;
50291;SDS011;36190;54.980;73.388;2022-08-05T06:35:12;5.45;;;2.65;;
50291;SDS011;36190;54.980;73.388;2022-08-05T06:37:39;6.80;;;2.65;;
50291;SDS011;36190;54.980;73.388;2022-08-05T06:40:07;11.13;;;2.90;;
50291;SDS011;36190;54.980;73.388;2022-08-05T06:42:37;6.85;;;2.58;;
50291;SDS011;36190;54.980;73.388;2022-08-05T06:45:05;10.48;;;3.05;;
50291;SDS011;36190;54.980;73.388;2022-08-05T06:47:33;4.78;;;2.47;;
50291;SDS011;36190;54.980;73.388;2022-08-05T06:50:01;5.07;;;2.60;;
50291;SDS011;36190;54.980;73.388;2022-08-05T06:52:28;6.10;;;2.65;;
50291;SDS011;36190;54.980;73.388;2022-08-05T06:54:55;7.53;;;2.63;;
50291;SDS011;36190;54.980;73.388;2022-08-05T06:57:23;5.90;;;2.50;;
50291;SDS011;36190;54.980;73.388;2022-08-05T06:59:52;8.07;;;2.80;;
50291;SDS011;36190;54.980;73.388;2022-08-05T07:02:19;5.88;;;2.42;;
50291;SDS011;36190;54.980;73.388;2022-08-05T07:04:46;6.13;;;2.90;;
50291;SDS011;36190;54.980;73.388;2022-08-05T07:07:14;6.65;;;2.78;;
50291;SDS011;36190;54.980;73.388;2022-08-05T07:09:42;3.90;;;2.45;;
50291;SDS011;36190;54.980;73.388;2022-08-05T07:12:10;5.28;;;2.50;;
50291;SDS011;36190;54.980;73.388;2022-08-05T07:14:59;11.48;;;2.95;;
50291;SDS011;36190;54.980;73.388;2022-08-05T07:17:43;3.90;;;2.40;;
50291;SDS011;36190;54.980;73.388;2022-08-05T07:20:11;4.50;;;2.45;;
50291;SDS011;36190;54.980;73.388;2022-08-05T07:22:38;5.25;;;2.50;;
50291;SDS011;36190;54.980;73.388;2022-08-05T07:25:06;10.98;;;2.83;;
50291;SDS011;36190;54.980;73.388;2022-08-05T07:27:33;5.53;;;2.80;;
50291;SDS011;36190;54.980;73.388;2022-08-05T07:30:02;7.35;;;2.55;;
50291;SDS011;36190;54.980;73.388;2022-08-05T07:32:33;8.75;;;3.13;;
50291;SDS011;36190;54.980;73.388;2022-08-05T07:35:01;5.82;;;2.60;;
50291;SDS011;36190;54.980;73.388;2022-08-05T07:37:28;9.02;;;2.75;;
50291;SDS011;36190;54.980;73.388;2022-08-05T07:39:55;6.50;;;2.70;;
50291;SDS011;36190;54.980;73.388;2022-08-05T07:42:23;8.20;;;3.20;;
50291;SDS011;36190;54.980;73.388;2022-08-05T07:44:50;10.02;;;2.92;;
50291;SDS011;36190;54.980;73.388;2022-08-05T07:47:19;9.05;;;2.63;;
50291;SDS011;36190;54.980;73.388;2022-08-05T07:49:46;7.05;;;2.50;;
50291;SDS011;36190;54.980;73.388;2022-08-05T07:52:16;4.97;;;2.33;;
50291;SDS011;36190;54.980;73.388;2022-08-05T07:54:43;9.00;;;2.70;;
50291;SDS011;36190;54.980;73.388;2022-08-05T07:57:11;11.93;;;4.38;;
50291;SDS011;36190;54.980;73.388;2022-08-05T07:59:38;6.55;;;2.72;;
50291;SDS011;36190;54.980;73.388;2022-08-05T08:02:06;5.80;;;2.63;;
50291;SDS011;36190;54.980;73.388;2022-08-05T08:04:36;4.55;;;2.35;;
50291;SDS011;36190;54.980;73.388;2022-08-05T08:07:04;4.65;;;2.55;;
50291;SDS011;36190;54.980;73.388;2022-08-05T08:09:31;5.22;;;2.38;;
50291;SDS011;36190;54.980;73.388;2022-08-05T08:11:59;4.85;;;2.42;;
50291;SDS011;36190;54.980;73.388;2022-08-05T08:14:26;6.60;;;2.63;;
50291;SDS011;36190;54.980;73.388;2022-08-05T08:16:53;4.35;;;2.60;;
50291;SDS011;36190;54.980;73.388;2022-08-05T08:19:21;4.78;;;2.30;;
50291;SDS011;36190;54.980;73.388;2022-08-05T08:21:49;5.20;;;2.40;;
50291;SDS011;36190;54.980;73.388;2022-08-05T08:24:17;9.75;;;2.58;;
50291;SDS011;36190;54.980;73.388;2022-08-05T08:26:44;3.25;;;2.28;;
50291;SDS011;36190;54.980;73.388;2022-08-05T08:29:14;9.75;;;2.70;;
50291;SDS011;36190;54.980;73.388;2022-08-05T08:31:42;3.95;;;2.30;;
50291;SDS011;36190;54.980;73.388;2022-08-05T08:34:09;6.43;;;2.47;;
50291;SDS011;36190;54.980;73.388;2022-08-05T08:36:37;6.18;;;2.58;;
50291;SDS011;36190;54.980;73.388;2022-08-05T08:39:06;3.33;;;2.30;;
50291;SDS011;36190;54.980;73.388;2022-08-05T08:41:33;4.60;;;2.60;;
50291;SDS011;36190;54.980;73.388;2022-08-05T08:44:03;5.78;;;2.28;;
50291;SDS011;36190;54.980;73.388;2022-08-05T08:46:33;6.28;;;2.40;;
50291;SDS011;36190;54.980;73.388;2022-08-05T08:49:00;6.53;;;2.78;;
50291;SDS011;36190;54.980;73.388;2022-08-05T08:51:30;5.18;;;2.20;;
50291;SDS011;36190;54.980;73.388;2022-08-05T08:53:59;4.20;;;2.25;;
50291;SDS011;36190;54.980;73.388;2022-08-05T08:56:28;6.38;;;2.40;;
50291;SDS011;36190;54.980;73.388;2022-08-05T08:58:57;11.93;;;3.22;;
50291;SDS011;36190;54.980;73.388;2022-08-05T09:01:25;12.32;;;3.03;;
50291;SDS011;36190;54.980;73.388;2022-08-05T09:03:53;3.33;;;2.20;;
50291;SDS011;36190;54.980;73.388;2022-08-05T09:06:21;6.18;;;2.53;;
50291;SDS011;36190;54.980;73.388;2022-08-05T09:08:48;4.60;;;2.38;;
50291;SDS011;36190;54.980;73.388;2022-08-05T09:11:16;6.28;;;2.50;;
50291;SDS011;36190;54.980;73.388;2022-08-05T09:13:45;4.50;;;2.30;;
50291;SDS011;36190;54.980;73.388;2022-08-05T09:16:12;4.68;;;2.58;;
50291;SDS011;36190;54.980;73.388;2022-08-05T09:18:40;5.07;;;2.50;;
50291;SDS011;36190;54.980;73.388;2022-08-05T09:21:08;6.18;;;2.70;;
50291;SDS011;36190;54.980;73.388;2022-08-05T09:23:36;19.92;;;3.97;;
50291;SDS011;36190;54.980;73.388;2022-08-05T09:26:07;8.38;;;2.70;;
50291;SDS011;36190;54.980;73.388;2022-08-05T09:28:36;3.93;;;2.30;;
50291;SDS011;36190;54.980;73.388;2022-08-05T09:31:07;6.63;;;2.60;;
50291;SDS011;36190;54.980;73.388;2022-08-05T09:33:45;14.20;;;3.47;;
50291;SDS011;36190;54.980;73.388;2022-08-05T09:36:14;6.90;;;2.42;;
50291;SDS011;36190;54.980;73.388;2022-08-05T09:38:54;6.25;;;2.70;;
50291;SDS011;36190;54.980;73.388;2022-08-05T09:41:22;6.53;;;2.50;;
50291;SDS011;36190;54.980;73.388;2022-08-05T09:43:49;9.25;;;2.50;;
50291;SDS011;36190;54.980;73.388;2022-08-05T09:46:25;6.22;;;2.50;;
50291;SDS011;36190;54.980;73.388;2022-08-05T09:48:54;6.18;;;2.40;;
50291;SDS011;36190;54.980;73.388;2022-08-05T09:51:33;3.22;;;2.17;;
50291;SDS011;36190;54.980;73.388;2022-08-05T09:54:02;6.63;;;2.50;;
50291;SDS011;36190;54.980;73.388;2022-08-05T09:56:33;7.25;;;2.45;;
50291;SDS011;36190;54.980;73.388;2022-08-05T09:59:03;5.43;;;2.45;;
50291;SDS011;36190;54.980;73.388;2022-08-05T10:01:35;6.53;;;2.83;;
50291;SDS011;36190;54.980;73.388;2022-08-05T10:04:07;4.28;;;2.40;;
50291;SDS011;36190;54.980;73.388;2022-08-05T10:06:38;6.55;;;2.30;;
50291;SDS011;36190;54.980;73.388;2022-08-05T10:09:09;13.32;;;3.28;;
50291;SDS011;36190;54.980;73.388;2022-08-05T10:11:37;6.45;;;2.75;;
50291;SDS011;36190;54.980;73.388;2022-08-05T10:14:19;4.63;;;2.22;;
50291;SDS011;36190;54.980;73.388;2022-08-05T10:16:49;6.80;;;2.53;;
50291;SDS011;36190;54.980;73.388;2022-08-05T10:19:20;5.03;;;2.20;;
50291;SDS011;36190;54.980;73.388;2022-08-05T10:21:48;6.50;;;2.40;;
50291;SDS011;36190;54.980;73.388;2022-08-05T10:24:16;5.55;;;2.17;;
50291;SDS011;36190;54.980;73.388;2022-08-05T10:26:46;4.70;;;2.20;;
50291;SDS011;36190;54.980;73.388;2022-08-05T10:29:16;5.57;;;2.42;;
50291;SDS011;36190;54.980;73.388;2022-08-05T10:31:43;7.43;;;2.58;;
50291;SDS011;36190;54.980;73.388;2022-08-05T10:34:12;5.63;;;2.28;;
50291;SDS011;36190;54.980;73.388;2022-08-05T10:36:40;4.22;;;2.17;;
50291;SDS011;36190;54.980;73.388;2022-08-05T10:39:09;4.85;;;2.50;;
50291;SDS011;36190;54.980;73.388;2022-08-05T10:41:42;6.70;;;2.40;;
50291;SDS011;36190;54.980;73.388;2022-08-05T10:44:15;8.85;;;2.40;;
50291;SDS011;36190;54.980;73.388;2022-08-05T10:46:46;7.25;;;2.60;;
50291;SDS011;36190;54.980;73.388;2022-08-05T10:49:17;6.63;;;2.50;;
50291;SDS011;36190;54.980;73.388;2022-08-05T10:51:45;11.02;;;3.35;;
50291;SDS011;36190;54.980;73.388;2022-08-05T10:54:14;7.78;;;2.75;;
50291;SDS011;36190;54.980;73.388;2022-08-05T10:56:43;9.43;;;2.50;;
50291;SDS011;36190;54.980;73.388;2022-08-05T10:59:15;3.42;;;2.20;;
50291;SDS011;36190;54.980;73.388;2022-08-05T11:01:44;5.43;;;2.33;;
50291;SDS011;36190;54.980;73.388;2022-08-05T11:04:12;6.28;;;2.63;;
50291;SDS011;36190;54.980;73.388;2022-08-05T11:09:36;4.75;;;2.58;;
50291;SDS011;36190;54.980;73.388;2022-08-05T11:15:21;6.40;;;2.35;;
50291;SDS011;36190;54.980;73.388;2022-08-05T11:17:51;4.43;;;2.25;;
50291;SDS011;36190;54.980;73.388;2022-08-05T11:20:41;5.07;;;2.33;;
50291;SDS011;36190;54.980;73.388;2022-08-05T11:23:27;6.68;;;2.42;;
50291;SDS011;36190;54.980;73.388;2022-08-05T11:26:08;7.38;;;2.80;;
50291;SDS011;36190;54.980;73.388;2022-08-05T11:28:36;3.78;;;2.42;;
50291;SDS011;36190;54.980;73.388;2022-08-05T11:31:24;3.88;;;2.35;;
50291;SDS011;36190;54.980;73.388;2022-08-05T11:34:00;6.97;;;2.65;;
50291;SDS011;36190;54.980;73.388;2022-08-05T11:36:43;6.22;;;2.30;;
50291;SDS011;36190;54.980;73.388;2022-08-05T11:39:15;5.38;;;2.28;;
50291;SDS011;36190;54.980;73.388;2022-08-05T11:42:03;6.53;;;2.40;;
50291;SDS011;36190;54.980;73.388;2022-08-05T11:44:36;5.90;;;2.50;;
50291;SDS011;36190;54.980;73.388;2022-08-05T11:47:04;7.15;;;2.33;;
50291;SDS011;36190;54.980;73.388;2022-08-05T11:49:32;5.47;;;2.38;;
50291;SDS011;36190;54.980;73.388;2022-08-05T11:52:00;6.03;;;2.45;;
50291;SDS011;36190;54.980;73.388;2022-08-05T11:54:29;5.18;;;2.53;;
50291;SDS011;36190;54.980;73.388;2022-08-05T11:56:58;4.10;;;2.40;;
50291;SDS011;36190;54.980;73.388;2022-08-05T11:59:27;4.57;;;2.38;;
50291;SDS011;36190;54.980;73.388;2022-08-05T12:01:58;5.50;;;2.30;;
50291;SDS011;36190;54.980;73.388;2022-08-05T12:04:27;3.90;;;2.20;;
50291;SDS011;36190;54.980;73.388;2022-08-05T12:07:02;5.65;;;2.60;;
50291;SDS011;36190;54.980;73.388;2022-08-05T12:09:35;2.72;;;2.13;;
50291;SDS011;36190;54.980;73.388;2022-08-05T12:12:03;3.90;;;2.20;;
50291;SDS011;36190;54.980;73.388;2022-08-05T12:14:35;3.53;;;2.17;;
50291;SDS011;36190;54.980;73.388;2022-08-05T12:17:07;6.22;;;2.60;;
50291;SDS011;36190;54.980;73.388;2022-08-05T12:19:41;5.15;;;2.40;;
50291;SDS011;36190;54.980;73.388;2022-08-05T12:22:10;5.72;;;2.20;;
50291;SDS011;36190;54.980;73.388;2022-08-05T12:24:43;3.30;;;1.92;;
50291;SDS011;36190;54.980;73.388;2022-08-05T12:27:18;4.07;;;2.30;;
50291;SDS011;36190;54.980;73.388;2022-08-05T12:29:46;5.65;;;2.38;;
50291;SDS011;36190;54.980;73.388;2022-08-05T12:32:24;5.28;;;2.42;;
50291;SDS011;36190;54.980;73.388;2022-08-05T12:34:51;3.47;;;2.28;;
50291;SDS011;36190;54.980;73.388;2022-08-05T12:37:19;6.78;;;2.80;;
50291;SDS011;36190;54.980;73.388;2022-08-05T12:39:48;5.72;;;2.63;;
50291;SDS011;36190;54.980;73.388;2022-08-05T12:42:16;7.35;;;2.60;;
50291;SDS011;36190;54.980;73.388;2022-08-05T12:44:45;4.25;;;2.28;;
50291;SDS011;36190;54.980;73.388;2022-08-05T12:47:13;11.88;;;2.63;;
50291;SDS011;36190;54.980;73.388;2022-08-05T12:49:51;3.60;;;2.50;;
50291;SDS011;36190;54.980;73.388;2022-08-05T12:52:19;4.30;;;2.60;;
50291;SDS011;36190;54.980;73.388;2022-08-05T12:54:49;6.50;;;2.80;;
50291;SDS011;36190;54.980;73.388;2022-08-05T12:57:16;4.25;;;2.35;;
50291;SDS011;36190;54.980;73.388;2022-08-05T12:59:46;6.18;;;2.70;;
50291;SDS011;36190;54.980;73.388;2022-08-05T13:02:15;7.22;;;3.00;;
50291;SDS011;36190;54.980;73.388;2022-08-05T13:04:46;10.25;;;3.17;;
50291;SDS011;36190;54.980;73.388;2022-08-05T13:07:15;4.38;;;2.22;;
50291;SDS011;36190;54.980;73.388;2022-08-05T13:09:47;3.55;;;2.20;;
50291;SDS011;36190;54.980;73.388;2022-08-05T13:12:17;3.90;;;2.45;;
50291;SDS011;36190;54.980;73.388;2022-08-05T13:14:46;3.13;;;2.00;;
50291;SDS011;36190;54.980;73.388;2022-08-05T13:17:16;4.20;;;2.40;;
50291;SDS011;36190;54.980;73.388;2022-08-05T13:19:57;3.85;;;2.20;;
50291;SDS011;36190;54.980;73.388;2022-08-05T13:22:26;4.85;;;2.20;;
50291;SDS011;36190;54.980;73.388;2022-08-05T13:24:55;3.15;;;2.15;;
50291;SDS011;36190;54.980;73.388;2022-08-05T13:27:24;5.70;;;2.40;;
50291;SDS011;36190;54.980;73.388;2022-08-05T13:29:53;3.03;;;2.20;;
50291;SDS011;36190;54.980;73.388;2022-08-05T13:32:20;3.20;;;2.28;;
50291;SDS011;36190;54.980;73.388;2022-08-05T13:34:48;4.90;;;2.15;;
50291;SDS011;36190;54.980;73.388;2022-08-05T13:37:16;7.05;;;2.58;;
50291;SDS011;36190;54.980;73.388;2022-08-05T13:39:45;4.93;;;2.28;;
50291;SDS011;36190;54.980;73.388;2022-08-05T13:42:14;6.57;;;2.60;;
50291;SDS011;36190;54.980;73.388;2022-08-05T13:44:42;4.45;;;2.30;;
50291;SDS011;36190;54.980;73.388;2022-08-05T13:47:09;4.25;;;2.40;;
50291;SDS011;36190;54.980;73.388;2022-08-05T13:49:37;5.65;;;2.50;;
50291;SDS011;36190;54.980;73.388;2022-08-05T13:52:11;4.97;;;2.30;;
50291;SDS011;36190;54.980;73.388;2022-08-05T13:54:39;8.00;;;2.80;;
50291;SDS011;36190;54.980;73.388;2022-08-05T13:57:07;4.13;;;2.67;;
50291;SDS011;36190;54.980;73.388;2022-08-05T13:59:37;5.05;;;2.55;;
50291;SDS011;36190;54.980;73.388;2022-08-05T14:02:06;5.55;;;2.60;;
50291;SDS011;36190;54.980;73.388;2022-08-05T14:04:35;7.50;;;2.83;;
50291;SDS011;36190;54.980;73.388;2022-08-05T14:07:21;5.78;;;2.80;;
50291;SDS011;36190;54.980;73.388;2022-08-05T14:09:49;6.63;;;2.70;;
50291;SDS011;36190;54.980;73.388;2022-08-05T14:12:17;7.45;;;3.10;;
50291;SDS011;36190;54.980;73.388;2022-08-05T14:14:46;7.70;;;3.28;;
50291;SDS011;36190;54.980;73.388;2022-08-05T14:17:13;8.38;;;3.20;;
50291;SDS011;36190;54.980;73.388;2022-08-05T14:19:41;8.00;;;3.90;;
50291;SDS011;36190;54.980;73.388;2022-08-05T14:22:08;9.57;;;3.95;;
50291;SDS011;36190;54.980;73.388;2022-08-05T14:24:36;10.30;;;4.35;;
50291;SDS011;36190;54.980;73.388;2022-08-05T14:27:06;9.93;;;5.20;;
50291;SDS011;36190;54.980;73.388;2022-08-05T14:29:34;10.80;;;5.68;;
50291;SDS011;36190;54.980;73.388;2022-08-05T14:32:03;10.98;;;5.72;;
50291;SDS011;36190;54.980;73.388;2022-08-05T14:34:31;11.75;;;5.88;;
50291;SDS011;36190;54.980;73.388;2022-08-05T14:36:58;17.17;;;5.85;;
50291;SDS011;36190;54.980;73.388;2022-08-05T14:39:26;14.32;;;5.63;;
50291;SDS011;36190;54.980;73.388;2022-08-05T14:41:53;12.60;;;6.18;;
50291;SDS011;36190;54.980;73.388;2022-08-05T14:44:21;12.63;;;5.80;;
50291;SDS011;36190;54.980;73.388;2022-08-05T14:46:48;10.63;;;5.50;;
50291;SDS011;36190;54.980;73.388;2022-08-05T14:49:17;13.07;;;5.05;;
50291;SDS011;36190;54.980;73.388;2022-08-05T14:51:44;14.25;;;5.00;;
50291;SDS011;36190;54.980;73.388;2022-08-05T14:54:12;17.58;;;5.70;;